22:17
Airports
Links
Donate
Help keep this website running!
PayPal
Bitcoin
METAR
RJAA 262200Z 01007KT 2200 BR FEW001 SCT002 BKN003 22/21 Q1010 NOSIG RMK 1ST001 3ST002 7ST003 A2985
Current Weather Conditions at RJAA
LIFR 22:00:00 26-06-17
Altimeter:29.82 hg
Temp:22.0°c 72°f
Dew point:21.0°c 70°f
Wind:7 knots, 8.1 mph, 4 m/s, from 10°
Visibility:1.37 statute miles
300(BKN) Broken
200(SCT) Scattered
100(FEW) A few
No significant weather changes expected within 2 hours.
Past METAR reports
LIFR 21:30:00 26-06-17
Altimeter:29.82 hg
Temp:22.0°c 72°f
Dew point:21.0°c 70°f
Wind:5 knots, 5.8 mph, 3 m/s, from 80°
Visibility:1.55 statute miles
300(BKN) Broken
200(SCT) Scattered
100(FEW) A few
RJAA 262130Z 08005KT 2500 -RA BR FEW001 SCT002 BKN003 22/21 Q1010 BECMG 04005KT 3500 BR RMK 1ST001 3ST002 7ST003 A2984
LIFR 21:18:00 26-06-17
Altimeter:29.82 hg
Temp:21.0°c 70°f
Dew point:21.0°c 70°f
Wind:4 knots, 4.6 mph, 2 m/s, from 70°
Visibility:1.55 statute miles
400(BKN) Broken
300(BKN) Broken
100(FEW) A few
RJAA 262118Z 07004KT 2500 -RA BR FEW001 BKN003 BKN004 21/21 Q1010 RMK 1ST001 6ST003 7ST004 A2984
LIFR 21:00:00 26-06-17
Altimeter:29.82 hg
Temp:21.0°c 70°f
Dew point:20.0°c 68°f
Wind:4 knots, 4.6 mph, 2 m/s, from 60°
Visibility:1.12 statute miles
300(BKN) Broken
200(SCT) Scattered
100(FEW) A few
RJAA 262100Z 06004KT 1800 -RA BR FEW001 SCT002 BKN003 21/20 Q1010 BECMG 04005KT 3500 -RA BR
LIFR 20:41:00 26-06-17
Altimeter:29.82 hg
Temp:21.0°c 70°f
Dew point:20.0°c 68°f
Wind:4 knots, 4.6 mph, 2 m/s, from 50°
Visibility:1.43 statute miles
300(BKN) Broken
100(FEW) A few
RJAA 262041Z 05004KT 2300 -RA BR FEW001 BKN003 21/20 Q1010 RMK 1ST001 7ST003 A2983
LIFR 20:30:00 26-06-17
Altimeter:29.82 hg
Temp:21.0°c 70°f
Dew point:20.0°c 68°f
Wind:4 knots, 4.6 mph, 2 m/s, from 60°
Visibility:1.49 statute miles
300(BKN) Broken
100(FEW) A few
RJAA 262030Z 06004KT 2400 -RA BR FEW001 BKN003 21/20 Q1010 BECMG 05005KT RMK 1ST001 7ST003 A2983
LIFR 20:09:00 26-06-17
Altimeter:29.79 hg
Temp:21.0°c 70°f
Dew point:20.0°c 68°f
Wind:5 knots, 5.8 mph, 3 m/s, from 30°
Visibility:1.86 statute miles
400(BKN) Broken
300(BKN) Broken
200(FEW) A few
RJAA 262009Z 03005KT 3000 -RA BR FEW002 BKN003 BKN004 21/20 Q1009 RMK 1ST002 5ST003 7ST004 A2982
TAF
TAF AMD RJAA 262147Z 2621/2800 04006KT 4000 BR FEW003 BKN008 TEMPO 2621/2700 2500 -RA BR FEW002 BKN003 BECMG 2703/2705 08006KT 8000 NSW FEW008 BKN015 BECMG 2712/2715 02004KT TEMPO 2715/2721 4000 -RA BR FEW005 BKN008
Forecast at RJAA
TEMPO 21:00 26-06-17 to 00:00 27-06-17
-RA BR
Visibility:1.55 statute miles
200FEW A few
300BKN Broken
21:00 26-06-17 to 03:00 27-06-17
BR
Wind:6 Knots from 40°
Visibility:2.49 statute miles
300FEW A few
800BKN Broken
BECMG 03:00 27-06-17 to 12:00 27-06-17
NSW
Wind:6 Knots from 80°
Visibility:4.97 statute miles
800FEW A few
1500BKN Broken
BECMG 12:00 27-06-17 to 00:00 28-06-17
NSW
Wind:4 Knots from 20°
Visibility:4.97 statute miles
800FEW A few
1500BKN Broken
TEMPO 15:00 27-06-17 to 21:00 27-06-17
-RA BR
Visibility:2.49 statute miles
500FEW A few
800BKN Broken